sensor_id;sensor_type;location;lat;lon;timestamp;temperature;humidity
80220;DHT22;70247;37.958;23.722;2023-11-21T00:00:49;15.60;56.70
80220;DHT22;70247;37.958;23.722;2023-11-21T00:03:14;15.60;57.00
80220;DHT22;70247;37.958;23.722;2023-11-21T00:05:41;15.60;57.10
80220;DHT22;70247;37.958;23.722;2023-11-21T00:08:09;15.60;57.00
80220;DHT22;70247;37.958;23.722;2023-11-21T00:10:34;15.50;57.10
80220;DHT22;70247;37.958;23.722;2023-11-21T00:13:00;15.60;57.40
80220;DHT22;70247;37.958;23.722;2023-11-21T00:15:27;15.60;57.10
80220;DHT22;70247;37.958;23.722;2023-11-21T00:17:52;15.50;57.30
80220;DHT22;70247;37.958;23.722;2023-11-21T00:20:18;15.60;57.00
80220;DHT22;70247;37.958;23.722;2023-11-21T00:22:44;15.50;56.60
80220;DHT22;70247;37.958;23.722;2023-11-21T00:25:10;15.40;57.20
80220;DHT22;70247;37.958;23.722;2023-11-21T00:27:36;15.50;57.30
80220;DHT22;70247;37.958;23.722;2023-11-21T00:30:01;15.50;57.80
80220;DHT22;70247;37.958;23.722;2023-11-21T00:32:29;15.40;57.30
80220;DHT22;70247;37.958;23.722;2023-11-21T00:34:55;15.40;57.70
80220;DHT22;70247;37.958;23.722;2023-11-21T00:37:20;15.50;57.40
80220;DHT22;70247;37.958;23.722;2023-11-21T00:39:46;15.60;57.40
80220;DHT22;70247;37.958;23.722;2023-11-21T00:42:11;15.60;57.50
80220;DHT22;70247;37.958;23.722;2023-11-21T00:44:37;15.50;57.70
80220;DHT22;70247;37.958;23.722;2023-11-21T00:47:03;15.40;57.50
80220;DHT22;70247;37.958;23.722;2023-11-21T00:49:28;15.40;58.00
80220;DHT22;70247;37.958;23.722;2023-11-21T00:51:54;15.40;57.90
80220;DHT22;70247;37.958;23.722;2023-11-21T00:54:20;15.40;58.20
80220;DHT22;70247;37.958;23.722;2023-11-21T00:56:46;15.40;57.90
80220;DHT22;70247;37.958;23.722;2023-11-21T00:59:13;15.40;57.80
80220;DHT22;70247;37.958;23.722;2023-11-21T01:01:38;15.40;57.70
80220;DHT22;70247;37.958;23.722;2023-11-21T01:04:04;15.40;58.00
80220;DHT22;70247;37.958;23.722;2023-11-21T01:06:32;15.30;58.60
80220;DHT22;70247;37.958;23.722;2023-11-21T01:08:58;15.30;58.40
80220;DHT22;70247;37.958;23.722;2023-11-21T01:11:23;15.30;58.20
80220;DHT22;70247;37.958;23.722;2023-11-21T01:13:49;15.30;58.10
80220;DHT22;70247;37.958;23.722;2023-11-21T01:16:14;15.30;58.50
80220;DHT22;70247;37.958;23.722;2023-11-21T01:18:40;15.40;58.90
80220;DHT22;70247;37.958;23.722;2023-11-21T01:21:05;15.30;58.60
80220;DHT22;70247;37.958;23.722;2023-11-21T01:23:32;15.30;58.60
80220;DHT22;70247;37.958;23.722;2023-11-21T01:25:58;15.30;58.10
80220;DHT22;70247;37.958;23.722;2023-11-21T01:28:24;15.20;58.60
80220;DHT22;70247;37.958;23.722;2023-11-21T01:30:49;15.20;58.80
80220;DHT22;70247;37.958;23.722;2023-11-21T01:33:15;15.30;58.70
80220;DHT22;70247;37.958;23.722;2023-11-21T01:35:41;15.40;59.60
80220;DHT22;70247;37.958;23.722;2023-11-21T01:38:07;15.30;59.00
80220;DHT22;70247;37.958;23.722;2023-11-21T01:40:33;15.30;59.30
80220;DHT22;70247;37.958;23.722;2023-11-21T01:43:00;15.20;58.70
80220;DHT22;70247;37.958;23.722;2023-11-21T01:45:25;15.10;58.50
80220;DHT22;70247;37.958;23.722;2023-11-21T01:47:51;15.20;59.00
80220;DHT22;70247;37.958;23.722;2023-11-21T01:50:17;15.10;59.20
80220;DHT22;70247;37.958;23.722;2023-11-21T01:52:46;15.20;59.20
80220;DHT22;70247;37.958;23.722;2023-11-21T01:55:12;15.10;59.00
80220;DHT22;70247;37.958;23.722;2023-11-21T01:57:39;15.10;59.40
80220;DHT22;70247;37.958;23.722;2023-11-21T02:00:05;15.20;58.80
80220;DHT22;70247;37.958;23.722;2023-11-21T02:02:44;15.10;58.80
80220;DHT22;70247;37.958;23.722;2023-11-21T02:05:10;15.10;59.10
80220;DHT22;70247;37.958;23.722;2023-11-21T02:07:38;15.20;59.30
80220;DHT22;70247;37.958;23.722;2023-11-21T02:10:04;15.30;59.00
80220;DHT22;70247;37.958;23.722;2023-11-21T02:12:30;15.20;59.30
80220;DHT22;70247;37.958;23.722;2023-11-21T02:14:55;15.10;59.10
80220;DHT22;70247;37.958;23.722;2023-11-21T02:17:21;15.00;59.30
80220;DHT22;70247;37.958;23.722;2023-11-21T02:19:46;15.00;59.10
80220;DHT22;70247;37.958;23.722;2023-11-21T02:22:17;14.90;59.40
80220;DHT22;70247;37.958;23.722;2023-11-21T02:24:42;15.00;59.70
80220;DHT22;70247;37.958;23.722;2023-11-21T02:27:08;15.00;59.60
80220;DHT22;70247;37.958;23.722;2023-11-21T02:29:33;15.00;59.60
80220;DHT22;70247;37.958;23.722;2023-11-21T02:31:59;15.00;59.30
80220;DHT22;70247;37.958;23.722;2023-11-21T02:34:25;15.00;59.10
80220;DHT22;70247;37.958;23.722;2023-11-21T02:36:50;14.90;59.50
80220;DHT22;70247;37.958;23.722;2023-11-21T02:39:16;14.90;59.90
80220;DHT22;70247;37.958;23.722;2023-11-21T02:41:42;14.90;59.70
80220;DHT22;70247;37.958;23.722;2023-11-21T02:44:08;14.90;60.00
80220;DHT22;70247;37.958;23.722;2023-11-21T02:46:34;14.90;59.30
80220;DHT22;70247;37.958;23.722;2023-11-21T02:49:00;14.90;59.70
80220;DHT22;70247;37.958;23.722;2023-11-21T02:51:26;14.90;60.00
80220;DHT22;70247;37.958;23.722;2023-11-21T02:53:52;14.90;59.80
80220;DHT22;70247;37.958;23.722;2023-11-21T02:56:17;14.90;60.10
80220;DHT22;70247;37.958;23.722;2023-11-21T02:58:43;15.00;60.20
80220;DHT22;70247;37.958;23.722;2023-11-21T03:01:11;14.90;59.60
80220;DHT22;70247;37.958;23.722;2023-11-21T03:03:38;14.80;59.80
80220;DHT22;70247;37.958;23.722;2023-11-21T03:06:05;14.90;60.00
80220;DHT22;70247;37.958;23.722;2023-11-21T03:08:31;15.00;59.90
80220;DHT22;70247;37.958;23.722;2023-11-21T03:10:57;14.90;60.10
80220;DHT22;70247;37.958;23.722;2023-11-21T03:13:23;14.90;59.90
80220;DHT22;70247;37.958;23.722;2023-11-21T03:15:48;14.90;60.00
80220;DHT22;70247;37.958;23.722;2023-11-21T03:18:14;14.80;59.60
80220;DHT22;70247;37.958;23.722;2023-11-21T03:20:40;14.90;60.20
80220;DHT22;70247;37.958;23.722;2023-11-21T03:23:05;14.90;60.00
80220;DHT22;70247;37.958;23.722;2023-11-21T03:25:31;14.90;59.90
80220;DHT22;70247;37.958;23.722;2023-11-21T03:27:56;15.00;60.10
80220;DHT22;70247;37.958;23.722;2023-11-21T03:30:22;14.90;59.60
80220;DHT22;70247;37.958;23.722;2023-11-21T03:32:47;14.90;59.60
80220;DHT22;70247;37.958;23.722;2023-11-21T03:35:13;14.90;59.60
80220;DHT22;70247;37.958;23.722;2023-11-21T03:37:39;14.90;60.00
80220;DHT22;70247;37.958;23.722;2023-11-21T03:40:07;14.90;59.80
80220;DHT22;70247;37.958;23.722;2023-11-21T03:42:34;14.80;59.50
80220;DHT22;70247;37.958;23.722;2023-11-21T03:45:00;14.90;59.60
80220;DHT22;70247;37.958;23.722;2023-11-21T03:47:28;14.80;59.70
80220;DHT22;70247;37.958;23.722;2023-11-21T03:49:54;14.90;60.10
80220;DHT22;70247;37.958;23.722;2023-11-21T03:52:20;14.90;59.70
80220;DHT22;70247;37.958;23.722;2023-11-21T03:54:45;14.90;59.90
80220;DHT22;70247;37.958;23.722;2023-11-21T03:57:11;14.90;59.60
80220;DHT22;70247;37.958;23.722;2023-11-21T03:59:39;14.90;60.00
80220;DHT22;70247;37.958;23.722;2023-11-21T04:02:05;14.80;59.50
80220;DHT22;70247;37.958;23.722;2023-11-21T04:04:30;14.80;59.60
80220;DHT22;70247;37.958;23.722;2023-11-21T04:06:56;14.80;59.60
80220;DHT22;70247;37.958;23.722;2023-11-21T04:09:21;14.80;60.30
80220;DHT22;70247;37.958;23.722;2023-11-21T04:11:50;14.90;60.40
80220;DHT22;70247;37.958;23.722;2023-11-21T04:14:16;14.80;60.30
80220;DHT22;70247;37.958;23.722;2023-11-21T04:16:42;14.90;59.80
80220;DHT22;70247;37.958;23.722;2023-11-21T04:19:08;14.90;60.00
80220;DHT22;70247;37.958;23.722;2023-11-21T04:21:36;15.00;59.70
80220;DHT22;70247;37.958;23.722;2023-11-21T04:24:01;14.90;59.60
80220;DHT22;70247;37.958;23.722;2023-11-21T04:26:27;14.90;59.90
80220;DHT22;70247;37.958;23.722;2023-11-21T04:28:52;14.80;59.90
80220;DHT22;70247;37.958;23.722;2023-11-21T04:31:18;14.90;60.20
80220;DHT22;70247;37.958;23.722;2023-11-21T04:33:44;14.80;59.90
80220;DHT22;70247;37.958;23.722;2023-11-21T04:36:10;14.90;60.50
80220;DHT22;70247;37.958;23.722;2023-11-21T04:38:35;14.90;60.40
80220;DHT22;70247;37.958;23.722;2023-11-21T04:41:01;14.90;60.10
80220;DHT22;70247;37.958;23.722;2023-11-21T04:43:27;14.90;60.30
80220;DHT22;70247;37.958;23.722;2023-11-21T04:45:54;14.90;61.20
80220;DHT22;70247;37.958;23.722;2023-11-21T04:48:20;14.80;60.60
80220;DHT22;70247;37.958;23.722;2023-11-21T04:50:45;14.80;60.50
80220;DHT22;70247;37.958;23.722;2023-11-21T04:53:11;14.90;60.60
80220;DHT22;70247;37.958;23.722;2023-11-21T04:55:42;14.80;60.80
80220;DHT22;70247;37.958;23.722;2023-11-21T04:58:07;14.90;61.10
80220;DHT22;70247;37.958;23.722;2023-11-21T05:00:33;15.00;60.80
80220;DHT22;70247;37.958;23.722;2023-11-21T05:02:59;15.00;60.30
80220;DHT22;70247;37.958;23.722;2023-11-21T05:05:26;14.90;60.20
80220;DHT22;70247;37.958;23.722;2023-11-21T05:07:52;14.80;60.60
80220;DHT22;70247;37.958;23.722;2023-11-21T05:10:19;14.80;61.10
80220;DHT22;70247;37.958;23.722;2023-11-21T05:12:44;14.90;60.50
80220;DHT22;70247;37.958;23.722;2023-11-21T05:15:11;14.90;60.40
80220;DHT22;70247;37.958;23.722;2023-11-21T05:17:39;14.90;60.30
80220;DHT22;70247;37.958;23.722;2023-11-21T05:20:08;15.00;60.10
80220;DHT22;70247;37.958;23.722;2023-11-21T05:22:35;14.90;60.40
80220;DHT22;70247;37.958;23.722;2023-11-21T05:25:01;15.00;60.70
80220;DHT22;70247;37.958;23.722;2023-11-21T05:27:28;15.00;60.30
80220;DHT22;70247;37.958;23.722;2023-11-21T05:29:53;15.00;60.60
80220;DHT22;70247;37.958;23.722;2023-11-21T05:32:19;15.00;60.80
80220;DHT22;70247;37.958;23.722;2023-11-21T05:34:44;15.00;60.90
80220;DHT22;70247;37.958;23.722;2023-11-21T05:37:10;15.00;60.90
80220;DHT22;70247;37.958;23.722;2023-11-21T05:39:36;15.00;60.40
80220;DHT22;70247;37.958;23.722;2023-11-21T05:42:01;15.10;59.80
80220;DHT22;70247;37.958;23.722;2023-11-21T05:44:27;15.10;59.80
80220;DHT22;70247;37.958;23.722;2023-11-21T05:46:52;15.00;60.40
80220;DHT22;70247;37.958;23.722;2023-11-21T05:49:18;15.00;60.40
80220;DHT22;70247;37.958;23.722;2023-11-21T05:51:47;15.10;60.70
80220;DHT22;70247;37.958;23.722;2023-11-21T05:54:12;15.20;60.50
80220;DHT22;70247;37.958;23.722;2023-11-21T05:56:38;15.10;60.50
80220;DHT22;70247;37.958;23.722;2023-11-21T05:59:04;15.10;60.80
80220;DHT22;70247;37.958;23.722;2023-11-21T06:01:29;15.20;60.60
80220;DHT22;70247;37.958;23.722;2023-11-21T06:03:55;15.30;59.80
80220;DHT22;70247;37.958;23.722;2023-11-21T06:06:21;15.40;59.40
80220;DHT22;70247;37.958;23.722;2023-11-21T06:08:50;15.50;59.70
80220;DHT22;70247;37.958;23.722;2023-11-21T06:11:16;15.50;59.50
80220;DHT22;70247;37.958;23.722;2023-11-21T06:13:41;15.50;59.40
80220;DHT22;70247;37.958;23.722;2023-11-21T06:16:07;15.60;59.90
80220;DHT22;70247;37.958;23.722;2023-11-21T06:18:33;15.60;60.00
80220;DHT22;70247;37.958;23.722;2023-11-21T06:21:00;15.60;59.60
80220;DHT22;70247;37.958;23.722;2023-11-21T06:23:26;15.60;59.80
80220;DHT22;70247;37.958;23.722;2023-11-21T06:25:51;15.70;59.80
80220;DHT22;70247;37.958;23.722;2023-11-21T06:28:17;15.70;60.10
80220;DHT22;70247;37.958;23.722;2023-11-21T06:30:43;15.80;59.80
80220;DHT22;70247;37.958;23.722;2023-11-21T06:33:10;15.80;59.80
80220;DHT22;70247;37.958;23.722;2023-11-21T06:35:36;15.80;59.90
80220;DHT22;70247;37.958;23.722;2023-11-21T06:38:02;15.90;60.20
80220;DHT22;70247;37.958;23.722;2023-11-21T06:40:28;15.90;60.10
80220;DHT22;70247;37.958;23.722;2023-11-21T06:42:53;15.90;59.80
80220;DHT22;70247;37.958;23.722;2023-11-21T06:45:19;15.90;60.10
80220;DHT22;70247;37.958;23.722;2023-11-21T06:47:45;16.00;60.20
80220;DHT22;70247;37.958;23.722;2023-11-21T06:50:11;16.10;60.60
80220;DHT22;70247;37.958;23.722;2023-11-21T06:52:37;16.50;59.20
80220;DHT22;70247;37.958;23.722;2023-11-21T06:55:02;17.10;57.80
80220;DHT22;70247;37.958;23.722;2023-11-21T06:57:28;17.60;56.10
80220;DHT22;70247;37.958;23.722;2023-11-21T06:59:54;17.90;54.70
80220;DHT22;70247;37.958;23.722;2023-11-21T07:02:19;18.20;54.00
80220;DHT22;70247;37.958;23.722;2023-11-21T07:04:45;18.40;52.70
80220;DHT22;70247;37.958;23.722;2023-11-21T07:07:11;18.90;51.70
80220;DHT22;70247;37.958;23.722;2023-11-21T07:09:37;19.50;51.70
80220;DHT22;70247;37.958;23.722;2023-11-21T07:12:03;19.80;50.70
80220;DHT22;70247;37.958;23.722;2023-11-21T07:14:31;20.00;50.40
80220;DHT22;70247;37.958;23.722;2023-11-21T07:16:57;20.10;49.80
80220;DHT22;70247;37.958;23.722;2023-11-21T07:19:23;20.10;50.60
80220;DHT22;70247;37.958;23.722;2023-11-21T07:21:48;20.20;50.20
80220;DHT22;70247;37.958;23.722;2023-11-21T07:24:17;20.10;49.80
80220;DHT22;70247;37.958;23.722;2023-11-21T07:26:43;19.90;50.70
80220;DHT22;70247;37.958;23.722;2023-11-21T07:29:08;19.70;51.50
80220;DHT22;70247;37.958;23.722;2023-11-21T07:31:34;19.50;51.90
80220;DHT22;70247;37.958;23.722;2023-11-21T07:34:00;19.40;53.30
80220;DHT22;70247;37.958;23.722;2023-11-21T07:36:26;19.20;53.50
80220;DHT22;70247;37.958;23.722;2023-11-21T07:38:51;19.10;53.10
80220;DHT22;70247;37.958;23.722;2023-11-21T07:41:17;19.10;53.20
80220;DHT22;70247;37.958;23.722;2023-11-21T07:43:44;19.00;53.90
80220;DHT22;70247;37.958;23.722;2023-11-21T07:46:09;19.10;53.30
80220;DHT22;70247;37.958;23.722;2023-11-21T07:48:41;19.20;53.10
80220;DHT22;70247;37.958;23.722;2023-11-21T07:51:07;19.30;54.10
80220;DHT22;70247;37.958;23.722;2023-11-21T07:53:34;19.40;53.10
80220;DHT22;70247;37.958;23.722;2023-11-21T07:56:03;19.50;53.50
80220;DHT22;70247;37.958;23.722;2023-11-21T07:58:31;19.60;53.30
80220;DHT22;70247;37.958;23.722;2023-11-21T08:00:59;19.80;52.60
80220;DHT22;70247;37.958;23.722;2023-11-21T08:03:24;20.00;51.20
80220;DHT22;70247;37.958;23.722;2023-11-21T08:05:52;20.10;51.70
80220;DHT22;70247;37.958;23.722;2023-11-21T08:08:17;20.20;51.80
80220;DHT22;70247;37.958;23.722;2023-11-21T08:10:44;20.40;51.50
80220;DHT22;70247;37.958;23.722;2023-11-21T08:13:19;20.50;51.60
80220;DHT22;70247;37.958;23.722;2023-11-21T08:15:45;20.80;49.70
80220;DHT22;70247;37.958;23.722;2023-11-21T08:18:11;21.00;48.20
80220;DHT22;70247;37.958;23.722;2023-11-21T08:20:38;21.00;48.60
80220;DHT22;70247;37.958;23.722;2023-11-21T08:23:05;21.00;48.70
80220;DHT22;70247;37.958;23.722;2023-11-21T08:25:31;20.90;47.70
80220;DHT22;70247;37.958;23.722;2023-11-21T08:27:57;20.80;48.00
80220;DHT22;70247;37.958;23.722;2023-11-21T08:30:22;20.70;48.20
80220;DHT22;70247;37.958;23.722;2023-11-21T08:32:49;20.70;48.40
80220;DHT22;70247;37.958;23.722;2023-11-21T08:35:16;20.50;46.90
80220;DHT22;70247;37.958;23.722;2023-11-21T08:37:42;20.50;47.80
80220;DHT22;70247;37.958;23.722;2023-11-21T08:40:08;20.50;48.30
80220;DHT22;70247;37.958;23.722;2023-11-21T08:42:37;20.50;48.80
80220;DHT22;70247;37.958;23.722;2023-11-21T08:45:03;20.30;50.00
80220;DHT22;70247;37.958;23.722;2023-11-21T08:47:28;20.40;50.90
80220;DHT22;70247;37.958;23.722;2023-11-21T08:49:54;20.50;49.80
80220;DHT22;70247;37.958;23.722;2023-11-21T08:52:20;20.60;50.20
80220;DHT22;70247;37.958;23.722;2023-11-21T08:54:49;20.80;49.70
80220;DHT22;70247;37.958;23.722;2023-11-21T08:57:23;21.20;48.80
80220;DHT22;70247;37.958;23.722;2023-11-21T08:59:49;21.50;48.00
80220;DHT22;70247;37.958;23.722;2023-11-21T09:02:21;21.70;47.20
80220;DHT22;70247;37.958;23.722;2023-11-21T09:04:48;21.90;46.10
80220;DHT22;70247;37.958;23.722;2023-11-21T09:07:13;22.00;46.60
80220;DHT22;70247;37.958;23.722;2023-11-21T09:09:39;22.20;46.50
80220;DHT22;70247;37.958;23.722;2023-11-21T09:12:04;22.10;45.00
80220;DHT22;70247;37.958;23.722;2023-11-21T09:14:31;22.30;45.20
80220;DHT22;70247;37.958;23.722;2023-11-21T09:16:57;22.40;44.60
80220;DHT22;70247;37.958;23.722;2023-11-21T09:19:23;22.60;45.70
80220;DHT22;70247;37.958;23.722;2023-11-21T09:21:48;22.90;44.60
80220;DHT22;70247;37.958;23.722;2023-11-21T09:24:14;23.10;44.40
80220;DHT22;70247;37.958;23.722;2023-11-21T09:26:40;23.30;43.70
80220;DHT22;70247;37.958;23.722;2023-11-21T09:29:06;23.70;42.50
80220;DHT22;70247;37.958;23.722;2023-11-21T09:31:33;24.10;41.90
80220;DHT22;70247;37.958;23.722;2023-11-21T09:33:59;24.30;41.30
80220;DHT22;70247;37.958;23.722;2023-11-21T09:36:24;24.60;41.00
80220;DHT22;70247;37.958;23.722;2023-11-21T09:38:53;25.10;39.90
80220;DHT22;70247;37.958;23.722;2023-11-21T09:41:28;25.70;38.20
80220;DHT22;70247;37.958;23.722;2023-11-21T09:44:00;25.90;39.10
80220;DHT22;70247;37.958;23.722;2023-11-21T09:46:27;26.30;38.20
80220;DHT22;70247;37.958;23.722;2023-11-21T09:48:53;26.70;37.30
80220;DHT22;70247;37.958;23.722;2023-11-21T09:51:19;26.70;37.00
80220;DHT22;70247;37.958;23.722;2023-11-21T09:53:47;27.00;36.50
80220;DHT22;70247;37.958;23.722;2023-11-21T09:56:14;27.50;36.60
80220;DHT22;70247;37.958;23.722;2023-11-21T09:58:44;28.40;35.10
80220;DHT22;70247;37.958;23.722;2023-11-21T10:01:10;28.60;34.00
80220;DHT22;70247;37.958;23.722;2023-11-21T10:03:37;28.10;34.50
80220;DHT22;70247;37.958;23.722;2023-11-21T10:06:04;27.50;35.20
80220;DHT22;70247;37.958;23.722;2023-11-21T10:08:31;27.20;36.50
80220;DHT22;70247;37.958;23.722;2023-11-21T10:10:57;27.10;36.60
80220;DHT22;70247;37.958;23.722;2023-11-21T10:13:24;27.10;37.00
80220;DHT22;70247;37.958;23.722;2023-11-21T10:15:52;27.40;35.80
80220;DHT22;70247;37.958;23.722;2023-11-21T10:18:18;28.30;36.10
80220;DHT22;70247;37.958;23.722;2023-11-21T10:20:44;28.80;33.90
80220;DHT22;70247;37.958;23.722;2023-11-21T10:23:18;29.60;33.70
80220;DHT22;70247;37.958;23.722;2023-11-21T10:25:44;29.90;33.40
80220;DHT22;70247;37.958;23.722;2023-11-21T10:28:09;30.00;33.00
80220;DHT22;70247;37.958;23.722;2023-11-21T10:30:36;29.70;32.90
80220;DHT22;70247;37.958;23.722;2023-11-21T10:33:03;28.60;34.80
80220;DHT22;70247;37.958;23.722;2023-11-21T10:35:41;27.80;35.60
80220;DHT22;70247;37.958;23.722;2023-11-21T10:38:07;27.20;35.50
80220;DHT22;70247;37.958;23.722;2023-11-21T10:40:40;26.70;38.10
80220;DHT22;70247;37.958;23.722;2023-11-21T10:43:08;26.50;39.00
80220;DHT22;70247;37.958;23.722;2023-11-21T10:45:38;26.30;38.30
80220;DHT22;70247;37.958;23.722;2023-11-21T10:48:07;26.90;37.10
80220;DHT22;70247;37.958;23.722;2023-11-21T10:50:34;27.00;36.10
80220;DHT22;70247;37.958;23.722;2023-11-21T10:53:03;27.00;36.90
80220;DHT22;70247;37.958;23.722;2023-11-21T10:55:29;27.40;36.80
80220;DHT22;70247;37.958;23.722;2023-11-21T10:57:57;28.00;34.60
80220;DHT22;70247;37.958;23.722;2023-11-21T11:00:23;28.30;35.50
80220;DHT22;70247;37.958;23.722;2023-11-21T11:02:51;28.20;34.40
80220;DHT22;70247;37.958;23.722;2023-11-21T11:05:20;28.20;34.80
80220;DHT22;70247;37.958;23.722;2023-11-21T11:07:51;27.90;34.50
80220;DHT22;70247;37.958;23.722;2023-11-21T11:10:22;28.10;35.70
80220;DHT22;70247;37.958;23.722;2023-11-21T11:12:51;28.10;37.40
80220;DHT22;70247;37.958;23.722;2023-11-21T11:15:17;27.90;36.10
80220;DHT22;70247;37.958;23.722;2023-11-21T11:17:45;27.40;35.80
80220;DHT22;70247;37.958;23.722;2023-11-21T11:20:11;26.90;36.60
80220;DHT22;70247;37.958;23.722;2023-11-21T11:22:42;26.40;37.90
80220;DHT22;70247;37.958;23.722;2023-11-21T11:25:25;26.20;38.60
80220;DHT22;70247;37.958;23.722;2023-11-21T11:28:02;26.80;37.90
80220;DHT22;70247;37.958;23.722;2023-11-21T11:33:11;27.70;36.10
80220;DHT22;70247;37.958;23.722;2023-11-21T11:38:05;27.70;37.00
80220;DHT22;70247;37.958;23.722;2023-11-21T11:40:39;27.30;36.80
80220;DHT22;70247;37.958;23.722;2023-11-21T11:43:06;27.10;38.00
80220;DHT22;70247;37.958;23.722;2023-11-21T11:45:33;26.60;38.10
80220;DHT22;70247;37.958;23.722;2023-11-21T11:47:59;26.50;38.50
80220;DHT22;70247;37.958;23.722;2023-11-21T11:50:25;26.10;40.20
80220;DHT22;70247;37.958;23.722;2023-11-21T11:52:52;25.80;40.50
80220;DHT22;70247;37.958;23.722;2023-11-21T11:55:20;25.10;40.70
80220;DHT22;70247;37.958;23.722;2023-11-21T11:57:53;24.60;42.70
80220;DHT22;70247;37.958;23.722;2023-11-21T12:02:51;24.40;43.10
80220;DHT22;70247;37.958;23.722;2023-11-21T12:05:18;23.80;44.70
80220;DHT22;70247;37.958;23.722;2023-11-21T12:07:53;23.60;44.90
80220;DHT22;70247;37.958;23.722;2023-11-21T12:10:20;23.40;46.20
80220;DHT22;70247;37.958;23.722;2023-11-21T12:12:47;23.30;46.30
80220;DHT22;70247;37.958;23.722;2023-11-21T12:15:13;23.20;46.80
80220;DHT22;70247;37.958;23.722;2023-11-21T12:17:39;23.00;46.90
80220;DHT22;70247;37.958;23.722;2023-11-21T12:20:05;23.10;46.70
80220;DHT22;70247;37.958;23.722;2023-11-21T12:22:49;23.00;47.10
80220;DHT22;70247;37.958;23.722;2023-11-21T12:25:15;23.00;47.80
80220;DHT22;70247;37.958;23.722;2023-11-21T12:27:50;23.20;47.80
80220;DHT22;70247;37.958;23.722;2023-11-21T12:30:21;23.10;47.50
80220;DHT22;70247;37.958;23.722;2023-11-21T12:32:48;23.20;47.90
80220;DHT22;70247;37.958;23.722;2023-11-21T12:35:14;23.20;48.10
80220;DHT22;70247;37.958;23.722;2023-11-21T12:37:40;23.10;48.40
80220;DHT22;70247;37.958;23.722;2023-11-21T12:40:09;23.20;48.40
80220;DHT22;70247;37.958;23.722;2023-11-21T12:42:40;22.90;48.10
80220;DHT22;70247;37.958;23.722;2023-11-21T12:45:07;22.70;49.10
80220;DHT22;70247;37.958;23.722;2023-11-21T12:47:36;22.70;49.40
80220;DHT22;70247;37.958;23.722;2023-11-21T12:50:02;22.50;49.70
80220;DHT22;70247;37.958;23.722;2023-11-21T12:52:28;22.50;50.40
80220;DHT22;70247;37.958;23.722;2023-11-21T12:54:53;22.30;51.40
80220;DHT22;70247;37.958;23.722;2023-11-21T12:57:25;22.30;51.10
80220;DHT22;70247;37.958;23.722;2023-11-21T12:59:52;22.50;50.40
80220;DHT22;70247;37.958;23.722;2023-11-21T13:02:19;22.30;50.70
80220;DHT22;70247;37.958;23.722;2023-11-21T13:04:51;22.40;50.40
80220;DHT22;70247;37.958;23.722;2023-11-21T13:07:17;22.40;50.30
80220;DHT22;70247;37.958;23.722;2023-11-21T13:09:42;22.50;50.80
80220;DHT22;70247;37.958;23.722;2023-11-21T13:12:09;22.30;50.60
80220;DHT22;70247;37.958;23.722;2023-11-21T13:14:35;22.40;50.60
80220;DHT22;70247;37.958;23.722;2023-11-21T13:17:01;22.30;51.80
80220;DHT22;70247;37.958;23.722;2023-11-21T13:19:27;22.30;51.60
80220;DHT22;70247;37.958;23.722;2023-11-21T13:21:52;22.30;51.60
80220;DHT22;70247;37.958;23.722;2023-11-21T13:24:19;22.30;52.00
80220;DHT22;70247;37.958;23.722;2023-11-21T13:26:45;22.20;52.00
80220;DHT22;70247;37.958;23.722;2023-11-21T13:29:12;22.20;52.70
80220;DHT22;70247;37.958;23.722;2023-11-21T13:31:38;22.10;51.90
80220;DHT22;70247;37.958;23.722;2023-11-21T13:34:04;22.20;52.00
80220;DHT22;70247;37.958;23.722;2023-11-21T13:36:30;22.30;52.10
80220;DHT22;70247;37.958;23.722;2023-11-21T13:38:58;22.10;51.90
80220;DHT22;70247;37.958;23.722;2023-11-21T13:41:24;22.00;52.40
80220;DHT22;70247;37.958;23.722;2023-11-21T13:43:56;22.00;53.10
80220;DHT22;70247;37.958;23.722;2023-11-21T13:46:31;22.00;53.60
80220;DHT22;70247;37.958;23.722;2023-11-21T13:49:02;22.00;54.20
80220;DHT22;70247;37.958;23.722;2023-11-21T13:51:28;22.00;53.30
80220;DHT22;70247;37.958;23.722;2023-11-21T13:54:04;21.90;52.60
80220;DHT22;70247;37.958;23.722;2023-11-21T13:56:35;21.80;53.60
80220;DHT22;70247;37.958;23.722;2023-11-21T13:59:00;21.80;53.90
80220;DHT22;70247;37.958;23.722;2023-11-21T14:01:39;21.70;54.90
80220;DHT22;70247;37.958;23.722;2023-11-21T14:04:30;21.70;55.00
80220;DHT22;70247;37.958;23.722;2023-11-21T14:06:56;21.60;55.80
80220;DHT22;70247;37.958;23.722;2023-11-21T14:09:22;21.70;54.20
80220;DHT22;70247;37.958;23.722;2023-11-21T14:11:49;21.50;54.20
80220;DHT22;70247;37.958;23.722;2023-11-21T14:14:16;21.40;55.40
80220;DHT22;70247;37.958;23.722;2023-11-21T14:16:43;21.40;56.00
80220;DHT22;70247;37.958;23.722;2023-11-21T14:19:10;21.40;56.60
80220;DHT22;70247;37.958;23.722;2023-11-21T14:21:41;21.40;55.80
80220;DHT22;70247;37.958;23.722;2023-11-21T14:24:10;21.50;54.80
80220;DHT22;70247;37.958;23.722;2023-11-21T14:26:41;21.40;54.50
80220;DHT22;70247;37.958;23.722;2023-11-21T14:29:07;21.40;54.90
80220;DHT22;70247;37.958;23.722;2023-11-21T14:31:33;21.40;54.60
80220;DHT22;70247;37.958;23.722;2023-11-21T14:33:59;21.40;55.30
80220;DHT22;70247;37.958;23.722;2023-11-21T14:36:27;21.40;54.90
80220;DHT22;70247;37.958;23.722;2023-11-21T14:38:52;21.40;55.00
80220;DHT22;70247;37.958;23.722;2023-11-21T14:41:18;21.30;55.90
80220;DHT22;70247;37.958;23.722;2023-11-21T14:43:44;21.30;55.20
80220;DHT22;70247;37.958;23.722;2023-11-21T14:46:12;21.20;55.60
80220;DHT22;70247;37.958;23.722;2023-11-21T14:48:41;21.10;56.90
80220;DHT22;70247;37.958;23.722;2023-11-21T14:51:13;21.00;57.20
80220;DHT22;70247;37.958;23.722;2023-11-21T14:53:57;21.00;57.60
80220;DHT22;70247;37.958;23.722;2023-11-21T14:56:31;21.00;57.60
80220;DHT22;70247;37.958;23.722;2023-11-21T14:58:59;20.90;57.40
80220;DHT22;70247;37.958;23.722;2023-11-21T15:01:41;20.80;57.50
80220;DHT22;70247;37.958;23.722;2023-11-21T15:04:19;20.80;57.80
80220;DHT22;70247;37.958;23.722;2023-11-21T15:07:10;20.70;58.10
80220;DHT22;70247;37.958;23.722;2023-11-21T15:09:39;20.60;58.60
80220;DHT22;70247;37.958;23.722;2023-11-21T15:12:08;20.70;58.40
80220;DHT22;70247;37.958;23.722;2023-11-21T15:17:06;20.60;58.60
80220;DHT22;70247;37.958;23.722;2023-11-21T15:19:32;20.50;59.30
80220;DHT22;70247;37.958;23.722;2023-11-21T15:21:58;20.60;58.80
80220;DHT22;70247;37.958;23.722;2023-11-21T15:24:24;20.50;59.00